sensor_id;sensor_type;location;lat;lon;timestamp;pressure;altitude;pressure_sealevel;temperature;humidity
42105;BME280;61464;51.472;5.712;2022-11-04T00:01:55;99915.41;;;9.24;100.00
42105;BME280;61464;51.472;5.712;2022-11-04T00:04:24;99908.47;;;9.25;100.00
42105;BME280;61464;51.472;5.712;2022-11-04T00:06:51;99927.41;;;9.25;100.00
42105;BME280;61464;51.472;5.712;2022-11-04T00:09:21;99930.00;;;9.25;100.00
42105;BME280;61464;51.472;5.712;2022-11-04T00:11:47;99937.41;;;9.29;100.00
42105;BME280;61464;51.472;5.712;2022-11-04T00:14:33;99934.19;;;9.26;100.00
42105;BME280;61464;51.472;5.712;2022-11-04T00:17:00;99938.72;;;9.24;100.00
42105;BME280;61464;51.472;5.712;2022-11-04T00:19:45;99936.66;;;9.20;100.00
42105;BME280;61464;51.472;5.712;2022-11-04T00:22:30;99943.13;;;9.16;100.00
42105;BME280;61464;51.472;5.712;2022-11-04T00:25:15;99953.22;;;9.11;100.00
42105;BME280;61464;51.472;5.712;2022-11-04T00:28:16;99947.59;;;8.99;100.00
42105;BME280;61464;51.472;5.712;2022-11-04T00:31:03;99953.94;;;8.88;100.00
42105;BME280;61464;51.472;5.712;2022-11-04T00:33:49;99959.44;;;8.85;100.00
42105;BME280;61464;51.472;5.712;2022-11-04T00:36:15;99962.50;;;8.89;100.00
42105;BME280;61464;51.472;5.712;2022-11-04T00:38:41;99967.69;;;8.89;100.00
42105;BME280;61464;51.472;5.712;2022-11-04T00:41:07;99965.75;;;8.82;100.00
42105;BME280;61464;51.472;5.712;2022-11-04T00:43:58;99963.03;;;8.76;100.00
42105;BME280;61464;51.472;5.712;2022-11-04T00:46:26;99963.53;;;8.63;100.00
42105;BME280;61464;51.472;5.712;2022-11-04T00:48:53;99967.09;;;8.62;100.00
42105;BME280;61464;51.472;5.712;2022-11-04T00:51:18;99959.38;;;8.45;100.00
42105;BME280;61464;51.472;5.712;2022-11-04T00:53:46;99964.84;;;8.51;100.00
42105;BME280;61464;51.472;5.712;2022-11-04T00:56:12;99967.91;;;8.38;100.00
42105;BME280;61464;51.472;5.712;2022-11-04T00:58:38;99968.91;;;8.37;100.00
42105;BME280;61464;51.472;5.712;2022-11-04T01:01:12;99975.19;;;8.34;100.00
42105;BME280;61464;51.472;5.712;2022-11-04T01:03:43;99968.41;;;8.25;100.00
42105;BME280;61464;51.472;5.712;2022-11-04T01:06:09;99968.72;;;8.22;100.00
42105;BME280;61464;51.472;5.712;2022-11-04T01:08:34;99976.66;;;8.20;100.00
42105;BME280;61464;51.472;5.712;2022-11-04T01:11:05;99971.78;;;8.25;100.00
42105;BME280;61464;51.472;5.712;2022-11-04T01:13:32;99982.63;;;8.29;100.00
42105;BME280;61464;51.472;5.712;2022-11-04T01:15:59;99977.94;;;8.24;100.00
42105;BME280;61464;51.472;5.712;2022-11-04T01:18:25;99978.59;;;8.26;100.00
42105;BME280;61464;51.472;5.712;2022-11-04T01:20:52;99978.13;;;8.23;100.00
42105;BME280;61464;51.472;5.712;2022-11-04T01:23:18;99994.13;;;8.26;100.00
42105;BME280;61464;51.472;5.712;2022-11-04T01:25:44;99980.69;;;8.23;100.00
42105;BME280;61464;51.472;5.712;2022-11-04T01:28:09;99987.47;;;8.32;100.00
42105;BME280;61464;51.472;5.712;2022-11-04T01:30:37;99989.25;;;8.56;100.00
42105;BME280;61464;51.472;5.712;2022-11-04T01:33:03;99998.16;;;8.62;100.00
42105;BME280;61464;51.472;5.712;2022-11-04T01:35:30;99998.81;;;8.56;100.00
42105;BME280;61464;51.472;5.712;2022-11-04T01:37:57;99992.19;;;8.53;100.00
42105;BME280;61464;51.472;5.712;2022-11-04T01:40:23;100007.88;;;8.43;100.00
42105;BME280;61464;51.472;5.712;2022-11-04T01:42:49;100007.50;;;8.38;100.00
42105;BME280;61464;51.472;5.712;2022-11-04T01:45:18;99998.94;;;8.30;100.00
42105;BME280;61464;51.472;5.712;2022-11-04T01:47:56;99997.50;;;8.27;100.00
42105;BME280;61464;51.472;5.712;2022-11-04T01:50:28;99990.25;;;8.22;100.00
42105;BME280;61464;51.472;5.712;2022-11-04T01:53:06;99993.28;;;8.18;100.00
42105;BME280;61464;51.472;5.712;2022-11-04T01:55:38;100002.81;;;8.17;100.00
42105;BME280;61464;51.472;5.712;2022-11-04T01:58:11;99990.53;;;8.11;100.00
42105;BME280;61464;51.472;5.712;2022-11-04T02:00:40;100007.34;;;8.07;100.00
42105;BME280;61464;51.472;5.712;2022-11-04T02:03:20;100002.50;;;8.04;100.00
42105;BME280;61464;51.472;5.712;2022-11-04T02:05:48;99995.41;;;7.98;100.00
42105;BME280;61464;51.472;5.712;2022-11-04T02:08:16;100007.19;;;8.00;100.00
42105;BME280;61464;51.472;5.712;2022-11-04T02:10:59;100011.06;;;7.96;100.00
42105;BME280;61464;51.472;5.712;2022-11-04T02:13:31;100011.69;;;7.82;100.00
42105;BME280;61464;51.472;5.712;2022-11-04T02:16:20;100010.69;;;7.83;100.00
42105;BME280;61464;51.472;5.712;2022-11-04T02:28:44;100013.44;;;7.65;100.00
42105;BME280;61464;51.472;5.712;2022-11-04T02:39:38;100024.03;;;7.54;100.00
42105;BME280;61464;51.472;5.712;2022-11-04T02:42:47;100033.38;;;7.47;100.00
42105;BME280;61464;51.472;5.712;2022-11-04T02:45:37;100029.66;;;7.41;100.00
42105;BME280;61464;51.472;5.712;2022-11-04T02:48:20;100036.22;;;7.35;100.00
42105;BME280;61464;51.472;5.712;2022-11-04T02:50:55;100030.91;;;7.37;100.00
42105;BME280;61464;51.472;5.712;2022-11-04T02:54:04;100033.31;;;7.30;100.00
42105;BME280;61464;51.472;5.712;2022-11-04T02:56:31;100034.09;;;7.22;100.00
42105;BME280;61464;51.472;5.712;2022-11-04T02:59:16;100029.22;;;7.19;100.00
42105;BME280;61464;51.472;5.712;2022-11-04T03:01:45;100036.31;;;7.17;100.00
42105;BME280;61464;51.472;5.712;2022-11-04T03:04:21;100035.22;;;7.20;100.00
42105;BME280;61464;51.472;5.712;2022-11-04T03:06:52;100034.34;;;7.11;100.00
42105;BME280;61464;51.472;5.712;2022-11-04T03:09:20;100030.16;;;7.10;100.00
42105;BME280;61464;51.472;5.712;2022-11-04T03:11:52;100032.41;;;7.13;100.00
42105;BME280;61464;51.472;5.712;2022-11-04T03:14:31;100031.72;;;7.03;100.00
42105;BME280;61464;51.472;5.712;2022-11-04T03:17:05;100036.88;;;7.03;100.00
42105;BME280;61464;51.472;5.712;2022-11-04T03:19:54;100036.88;;;7.03;100.00
42105;BME280;61464;51.472;5.712;2022-11-04T03:22:24;100041.69;;;6.98;100.00
42105;BME280;61464;51.472;5.712;2022-11-04T03:24:51;100032.66;;;6.94;100.00
42105;BME280;61464;51.472;5.712;2022-11-04T03:27:25;100041.03;;;6.96;100.00
42105;BME280;61464;51.472;5.712;2022-11-04T03:30:02;100045.84;;;6.91;100.00
42105;BME280;61464;51.472;5.712;2022-11-04T03:32:57;100053.28;;;6.94;100.00
42105;BME280;61464;51.472;5.712;2022-11-04T03:35:25;100051.38;;;6.96;100.00
42105;BME280;61464;51.472;5.712;2022-11-04T03:37:52;100052.81;;;6.98;100.00
42105;BME280;61464;51.472;5.712;2022-11-04T03:40:19;100055.16;;;7.10;100.00
42105;BME280;61464;51.472;5.712;2022-11-04T03:43:00;100060.38;;;7.18;100.00
42105;BME280;61464;51.472;5.712;2022-11-04T03:45:29;100059.09;;;7.22;100.00
42105;BME280;61464;51.472;5.712;2022-11-04T03:47:55;100051.50;;;7.20;100.00
42105;BME280;61464;51.472;5.712;2022-11-04T03:50:31;100058.59;;;7.18;100.00
42105;BME280;61464;51.472;5.712;2022-11-04T03:52:58;100055.63;;;7.13;100.00
42105;BME280;61464;51.472;5.712;2022-11-04T03:59:00;100059.72;;;7.16;100.00
42105;BME280;61464;51.472;5.712;2022-11-04T04:04:32;100058.53;;;7.10;100.00
42105;BME280;61464;51.472;5.712;2022-11-04T04:07:14;100059.63;;;6.99;100.00
42105;BME280;61464;51.472;5.712;2022-11-04T04:10:06;100053.94;;;6.96;100.00
42105;BME280;61464;51.472;5.712;2022-11-04T04:13:00;100056.31;;;6.89;100.00
42105;BME280;61464;51.472;5.712;2022-11-04T04:18:28;100068.06;;;6.83;100.00
42105;BME280;61464;51.472;5.712;2022-11-04T04:20:58;100061.50;;;6.71;100.00
42105;BME280;61464;51.472;5.712;2022-11-04T04:23:29;100064.03;;;6.63;100.00
42105;BME280;61464;51.472;5.712;2022-11-04T04:26:15;100059.81;;;6.62;100.00
42105;BME280;61464;51.472;5.712;2022-11-04T04:29:07;100060.53;;;6.46;100.00
42105;BME280;61464;51.472;5.712;2022-11-04T04:31:37;100064.03;;;6.45;100.00
42105;BME280;61464;51.472;5.712;2022-11-04T04:34:27;100065.44;;;6.39;100.00
42105;BME280;61464;51.472;5.712;2022-11-04T04:39:49;100069.59;;;6.32;100.00
42105;BME280;61464;51.472;5.712;2022-11-04T04:42:35;100068.31;;;6.18;100.00
42105;BME280;61464;51.472;5.712;2022-11-04T04:45:35;100068.16;;;6.02;100.00
42105;BME280;61464;51.472;5.712;2022-11-04T04:48:03;100079.53;;;6.09;100.00
42105;BME280;61464;51.472;5.712;2022-11-04T04:50:37;100073.41;;;6.10;100.00
42105;BME280;61464;51.472;5.712;2022-11-04T04:53:04;100079.59;;;5.99;100.00
42105;BME280;61464;51.472;5.712;2022-11-04T04:55:31;100078.19;;;6.05;100.00
42105;BME280;61464;51.472;5.712;2022-11-04T04:57:57;100080.38;;;6.00;100.00
42105;BME280;61464;51.472;5.712;2022-11-04T05:00:23;100081.81;;;5.84;100.00
42105;BME280;61464;51.472;5.712;2022-11-04T05:02:49;100074.44;;;5.90;100.00
42105;BME280;61464;51.472;5.712;2022-11-04T05:05:16;100083.84;;;5.81;100.00
42105;BME280;61464;51.472;5.712;2022-11-04T05:07:42;100085.56;;;5.90;100.00
42105;BME280;61464;51.472;5.712;2022-11-04T05:10:11;100083.72;;;5.82;100.00
42105;BME280;61464;51.472;5.712;2022-11-04T05:12:38;100086.66;;;5.88;100.00
42105;BME280;61464;51.472;5.712;2022-11-04T05:15:25;100085.47;;;5.82;100.00
42105;BME280;61464;51.472;5.712;2022-11-04T05:17:56;100094.81;;;5.83;100.00
42105;BME280;61464;51.472;5.712;2022-11-04T05:20:23;100088.38;;;5.69;100.00
42105;BME280;61464;51.472;5.712;2022-11-04T05:22:49;100093.25;;;5.72;100.00
42105;BME280;61464;51.472;5.712;2022-11-04T05:25:15;100100.69;;;5.75;100.00
42105;BME280;61464;51.472;5.712;2022-11-04T05:27:41;100101.66;;;5.74;100.00
42105;BME280;61464;51.472;5.712;2022-11-04T05:30:07;100097.31;;;5.75;100.00
42105;BME280;61464;51.472;5.712;2022-11-04T05:32:33;100099.75;;;5.76;100.00
42105;BME280;61464;51.472;5.712;2022-11-04T05:34:59;100101.97;;;5.61;100.00
42105;BME280;61464;51.472;5.712;2022-11-04T05:37:25;100110.13;;;5.57;100.00
42105;BME280;61464;51.472;5.712;2022-11-04T05:39:51;100117.81;;;5.67;100.00
42105;BME280;61464;51.472;5.712;2022-11-04T05:42:17;100118.69;;;5.85;100.00
42105;BME280;61464;51.472;5.712;2022-11-04T05:44:43;100126.22;;;5.96;100.00
42105;BME280;61464;51.472;5.712;2022-11-04T05:47:09;100126.22;;;5.96;100.00
42105;BME280;61464;51.472;5.712;2022-11-04T05:49:35;100125.94;;;5.99;100.00
42105;BME280;61464;51.472;5.712;2022-11-04T05:52:00;100125.69;;;5.93;100.00
42105;BME280;61464;51.472;5.712;2022-11-04T05:54:26;100130.69;;;5.94;100.00
42105;BME280;61464;51.472;5.712;2022-11-04T05:56:52;100135.06;;;5.84;100.00
42105;BME280;61464;51.472;5.712;2022-11-04T05:59:18;100134.13;;;5.85;100.00
42105;BME280;61464;51.472;5.712;2022-11-04T06:01:44;100140.31;;;5.92;100.00
42105;BME280;61464;51.472;5.712;2022-11-04T06:04:17;100140.59;;;5.99;100.00
42105;BME280;61464;51.472;5.712;2022-11-04T06:06:43;100149.22;;;6.08;100.00
42105;BME280;61464;51.472;5.712;2022-11-04T06:09:09;100141.19;;;6.11;100.00
42105;BME280;61464;51.472;5.712;2022-11-04T06:11:36;100150.34;;;6.05;100.00
42105;BME280;61464;51.472;5.712;2022-11-04T06:14:03;100153.28;;;6.10;100.00
42105;BME280;61464;51.472;5.712;2022-11-04T06:16:29;100162.06;;;6.17;100.00
42105;BME280;61464;51.472;5.712;2022-11-04T06:18:57;100143.50;;;6.14;100.00
42105;BME280;61464;51.472;5.712;2022-11-04T06:21:32;100154.03;;;6.20;100.00
42105;BME280;61464;51.472;5.712;2022-11-04T06:23:58;100150.66;;;6.20;100.00
42105;BME280;61464;51.472;5.712;2022-11-04T06:26:27;100147.56;;;6.16;100.00
42105;BME280;61464;51.472;5.712;2022-11-04T06:28:53;100151.50;;;6.11;100.00
42105;BME280;61464;51.472;5.712;2022-11-04T06:31:20;100149.38;;;6.06;100.00
42105;BME280;61464;51.472;5.712;2022-11-04T06:33:46;100153.59;;;6.07;100.00
42105;BME280;61464;51.472;5.712;2022-11-04T06:36:14;100157.22;;;6.04;100.00
42105;BME280;61464;51.472;5.712;2022-11-04T06:38:40;100155.06;;;6.10;100.00
42105;BME280;61464;51.472;5.712;2022-11-04T06:41:12;100164.78;;;6.16;100.00
42105;BME280;61464;51.472;5.712;2022-11-04T06:43:39;100167.72;;;6.21;100.00
42105;BME280;61464;51.472;5.712;2022-11-04T06:46:05;100165.97;;;6.21;100.00
42105;BME280;61464;51.472;5.712;2022-11-04T06:48:31;100174.75;;;6.29;100.00
42105;BME280;61464;51.472;5.712;2022-11-04T06:50:58;100171.34;;;6.28;100.00
42105;BME280;61464;51.472;5.712;2022-11-04T06:53:26;100180.88;;;6.28;100.00
42105;BME280;61464;51.472;5.712;2022-11-04T06:55:52;100192.72;;;6.38;100.00
42105;BME280;61464;51.472;5.712;2022-11-04T06:58:18;100194.72;;;6.44;100.00
42105;BME280;61464;51.472;5.712;2022-11-04T07:00:51;100200.25;;;6.50;100.00
42105;BME280;61464;51.472;5.712;2022-11-04T07:03:17;100196.00;;;6.58;100.00
42105;BME280;61464;51.472;5.712;2022-11-04T07:05:43;100201.84;;;6.60;100.00
42105;BME280;61464;51.472;5.712;2022-11-04T07:08:09;100212.28;;;6.59;100.00
42105;BME280;61464;51.472;5.712;2022-11-04T07:10:35;100212.81;;;6.62;100.00
42105;BME280;61464;51.472;5.712;2022-11-04T07:13:00;100208.16;;;6.66;100.00
42105;BME280;61464;51.472;5.712;2022-11-04T07:15:26;100208.81;;;6.68;100.00
42105;BME280;61464;51.472;5.712;2022-11-04T07:17:52;100211.25;;;6.70;100.00
42105;BME280;61464;51.472;5.712;2022-11-04T07:20:18;100215.59;;;6.69;100.00
42105;BME280;61464;51.472;5.712;2022-11-04T07:22:44;100214.56;;;6.80;100.00
42105;BME280;61464;51.472;5.712;2022-11-04T07:25:09;100209.94;;;6.83;100.00
42105;BME280;61464;51.472;5.712;2022-11-04T07:27:35;100213.19;;;6.85;100.00
42105;BME280;61464;51.472;5.712;2022-11-04T07:30:01;100222.47;;;6.96;100.00
42105;BME280;61464;51.472;5.712;2022-11-04T07:32:27;100227.69;;;7.04;100.00
42105;BME280;61464;51.472;5.712;2022-11-04T07:34:53;100232.78;;;7.14;100.00
42105;BME280;61464;51.472;5.712;2022-11-04T07:37:19;100232.69;;;7.24;100.00
42105;BME280;61464;51.472;5.712;2022-11-04T07:39:44;100231.94;;;7.32;100.00
42105;BME280;61464;51.472;5.712;2022-11-04T07:42:10;100235.41;;;7.40;100.00
42105;BME280;61464;51.472;5.712;2022-11-04T07:44:36;100234.28;;;7.43;100.00
42105;BME280;61464;51.472;5.712;2022-11-04T07:47:02;100230.56;;;7.63;100.00
42105;BME280;61464;51.472;5.712;2022-11-04T07:49:28;100236.47;;;7.56;100.00
42105;BME280;61464;51.472;5.712;2022-11-04T07:51:54;100236.13;;;7.51;100.00
42105;BME280;61464;51.472;5.712;2022-11-04T07:54:19;100243.88;;;7.51;100.00
42105;BME280;61464;51.472;5.712;2022-11-04T07:56:45;100237.78;;;7.60;100.00
42105;BME280;61464;51.472;5.712;2022-11-04T07:59:11;100248.50;;;7.65;100.00
42105;BME280;61464;51.472;5.712;2022-11-04T08:01:37;100252.22;;;7.71;100.00
42105;BME280;61464;51.472;5.712;2022-11-04T08:04:02;100255.97;;;7.76;100.00
42105;BME280;61464;51.472;5.712;2022-11-04T08:06:30;100254.03;;;7.78;100.00
42105;BME280;61464;51.472;5.712;2022-11-04T08:08:57;100269.69;;;7.77;100.00
42105;BME280;61464;51.472;5.712;2022-11-04T08:11:24;100254.19;;;7.77;100.00
42105;BME280;61464;51.472;5.712;2022-11-04T08:13:53;100261.56;;;7.90;100.00
42105;BME280;61464;51.472;5.712;2022-11-04T08:16:23;100263.91;;;8.09;100.00
42105;BME280;61464;51.472;5.712;2022-11-04T08:18:50;100264.97;;;7.98;100.00
42105;BME280;61464;51.472;5.712;2022-11-04T08:21:20;100263.91;;;8.09;100.00
42105;BME280;61464;51.472;5.712;2022-11-04T08:23:46;100273.38;;;8.26;100.00
42105;BME280;61464;51.472;5.712;2022-11-04T08:26:17;100268.06;;;8.36;100.00
42105;BME280;61464;51.472;5.712;2022-11-04T08:28:43;100269.78;;;8.62;100.00
42105;BME280;61464;51.472;5.712;2022-11-04T08:31:13;100273.78;;;8.48;100.00
42105;BME280;61464;51.472;5.712;2022-11-04T08:33:40;100283.56;;;8.36;100.00
42105;BME280;61464;51.472;5.712;2022-11-04T08:36:17;100278.69;;;8.25;100.00
42105;BME280;61464;51.472;5.712;2022-11-04T08:38:44;100289.34;;;8.30;100.00
42105;BME280;61464;51.472;5.712;2022-11-04T08:41:12;100293.22;;;8.26;100.00
42105;BME280;61464;51.472;5.712;2022-11-04T08:43:38;100295.75;;;8.18;100.00
42105;BME280;61464;51.472;5.712;2022-11-04T08:46:07;100295.94;;;8.16;100.00
42105;BME280;61464;51.472;5.712;2022-11-04T08:48:35;100299.09;;;8.36;100.00
42105;BME280;61464;51.472;5.712;2022-11-04T08:51:03;100306.47;;;8.49;100.00
42105;BME280;61464;51.472;5.712;2022-11-04T08:53:29;100310.34;;;8.53;100.00
42105;BME280;61464;51.472;5.712;2022-11-04T08:55:55;100313.47;;;8.73;100.00
42105;BME280;61464;51.472;5.712;2022-11-04T08:58:21;100311.25;;;8.86;100.00
42105;BME280;61464;51.472;5.712;2022-11-04T09:00:48;100316.13;;;8.98;100.00
42105;BME280;61464;51.472;5.712;2022-11-04T09:03:15;100320.53;;;9.22;100.00
42105;BME280;61464;51.472;5.712;2022-11-04T09:05:41;100322.00;;;9.24;100.00
42105;BME280;61464;51.472;5.712;2022-11-04T09:08:13;100325.41;;;9.25;100.00
42105;BME280;61464;51.472;5.712;2022-11-04T09:10:41;100330.59;;;9.33;100.00
42105;BME280;61464;51.472;5.712;2022-11-04T09:13:08;100334.31;;;9.39;100.00
42105;BME280;61464;51.472;5.712;2022-11-04T09:15:36;100334.97;;;9.65;100.00
42105;BME280;61464;51.472;5.712;2022-11-04T09:18:03;100334.31;;;9.63;100.00
42105;BME280;61464;51.472;5.712;2022-11-04T09:20:29;100342.41;;;9.77;100.00
42105;BME280;61464;51.472;5.712;2022-11-04T09:22:55;100352.94;;;9.92;100.00
42105;BME280;61464;51.472;5.712;2022-11-04T09:25:21;100344.50;;;9.98;100.00
42105;BME280;61464;51.472;5.712;2022-11-04T09:27:47;100355.47;;;10.16;100.00
42105;BME280;61464;51.472;5.712;2022-11-04T09:30:14;100361.00;;;10.21;100.00
42105;BME280;61464;51.472;5.712;2022-11-04T09:32:40;100365.34;;;10.29;100.00
42105;BME280;61464;51.472;5.712;2022-11-04T09:35:06;100371.19;;;10.39;100.00
42105;BME280;61464;51.472;5.712;2022-11-04T09:37:32;100360.16;;;10.29;100.00
42105;BME280;61464;51.472;5.712;2022-11-04T09:39:58;100375.25;;;10.25;100.00
42105;BME280;61464;51.472;5.712;2022-11-04T09:45:01;100380.59;;;10.24;100.00
42105;BME280;61464;51.472;5.712;2022-11-04T09:47:30;100387.09;;;10.36;100.00
42105;BME280;61464;51.472;5.712;2022-11-04T09:49:59;100383.06;;;10.34;100.00
42105;BME280;61464;51.472;5.712;2022-11-04T09:52:33;100383.38;;;10.14;100.00
42105;BME280;61464;51.472;5.712;2022-11-04T09:55:23;100386.97;;;10.13;100.00
42105;BME280;61464;51.472;5.712;2022-11-04T09:57:55;100390.47;;;10.28;100.00
42105;BME280;61464;51.472;5.712;2022-11-04T10:00:25;100390.84;;;10.34;100.00
42105;BME280;61464;51.472;5.712;2022-11-04T10:03:29;100394.97;;;10.59;100.00
42105;BME280;61464;51.472;5.712;2022-11-04T10:08:53;100384.06;;;10.64;100.00
42105;BME280;61464;51.472;5.712;2022-11-04T10:11:58;100384.44;;;10.92;100.00
42105;BME280;61464;51.472;5.712;2022-11-04T10:20:47;100404.13;;;10.78;100.00
42105;BME280;61464;51.472;5.712;2022-11-04T10:26:22;100423.44;;;11.15;100.00
42105;BME280;61464;51.472;5.712;2022-11-04T10:29:03;100420.00;;;11.23;100.00
42105;BME280;61464;51.472;5.712;2022-11-04T10:31:30;100415.53;;;11.08;100.00
42105;BME280;61464;51.472;5.712;2022-11-04T10:34:18;100418.41;;;11.22;100.00
42105;BME280;61464;51.472;5.712;2022-11-04T10:36:48;100417.13;;;11.18;100.00
42105;BME280;61464;51.472;5.712;2022-11-04T10:39:33;100424.34;;;11.31;100.00
42105;BME280;61464;51.472;5.712;2022-11-04T10:42:00;100422.56;;;11.31;100.00
42105;BME280;61464;51.472;5.712;2022-11-04T10:44:33;100421.94;;;11.52;100.00
42105;BME280;61464;51.472;5.712;2022-11-04T10:52:38;100422.53;;;11.08;100.00
42105;BME280;61464;51.472;5.712;2022-11-04T10:55:38;100414.28;;;10.96;100.00
42105;BME280;61464;51.472;5.712;2022-11-04T10:58:22;100409.38;;;11.10;100.00
42105;BME280;61464;51.472;5.712;2022-11-04T11:00:49;100419.22;;;10.91;100.00
42105;BME280;61464;51.472;5.712;2022-11-04T11:03:33;100414.69;;;10.85;100.00
42105;BME280;61464;51.472;5.712;2022-11-04T11:06:40;100429.03;;;11.04;100.00
42105;BME280;61464;51.472;5.712;2022-11-04T11:09:25;100430.41;;;11.23;100.00
42105;BME280;61464;51.472;5.712;2022-11-04T11:14:41;100447.75;;;11.77;98.29
42105;BME280;61464;51.472;5.712;2022-11-04T11:17:35;100444.91;;;11.72;99.11
42105;BME280;61464;51.472;5.712;2022-11-04T11:20:21;100434.78;;;11.22;97.45
42105;BME280;61464;51.472;5.712;2022-11-04T11:22:50;100425.22;;;11.46;98.47
42105;BME280;61464;51.472;5.712;2022-11-04T11:25:31;100424.88;;;10.86;100.00
42105;BME280;61464;51.472;5.712;2022-11-04T11:28:08;100433.75;;;11.00;100.00
42105;BME280;61464;51.472;5.712;2022-11-04T11:33:29;100434.13;;;10.97;100.00
42105;BME280;61464;51.472;5.712;2022-11-04T11:44:33;100446.78;;;11.23;99.55
42105;BME280;61464;51.472;5.712;2022-11-04T11:47:06;100452.34;;;11.52;98.32
42105;BME280;61464;51.472;5.712;2022-11-04T11:49:35;100455.28;;;11.48;97.16
42105;BME280;61464;51.472;5.712;2022-11-04T11:55:25;100450.28;;;12.31;93.51
42105;BME280;61464;51.472;5.712;2022-11-04T12:03:36;100452.66;;;12.18;93.99
42105;BME280;61464;51.472;5.712;2022-11-04T12:09:07;100472.56;;;11.64;91.72
42105;BME280;61464;51.472;5.712;2022-11-04T12:12:15;100480.25;;;11.81;89.57
42105;BME280;61464;51.472;5.712;2022-11-04T12:23:38;100494.44;;;12.24;85.12
42105;BME280;61464;51.472;5.712;2022-11-04T12:29:02;100488.44;;;12.01;87.44
42105;BME280;61464;51.472;5.712;2022-11-04T12:35:12;100500.59;;;11.77;86.21
42105;BME280;61464;51.472;5.712;2022-11-04T12:38:11;100497.53;;;11.74;86.54
42105;BME280;61464;51.472;5.712;2022-11-04T12:43:46;100510.66;;;11.80;89.59
42105;BME280;61464;51.472;5.712;2022-11-04T12:46:31;100519.53;;;11.94;92.20
42105;BME280;61464;51.472;5.712;2022-11-04T12:49:20;100523.09;;;11.93;93.01
42105;BME280;61464;51.472;5.712;2022-11-04T12:58:09;100529.97;;;11.86;93.77
42105;BME280;61464;51.472;5.712;2022-11-04T13:00:41;100525.25;;;11.90;93.20
42105;BME280;61464;51.472;5.712;2022-11-04T13:03:19;100520.78;;;11.75;90.73
42105;BME280;61464;51.472;5.712;2022-11-04T13:05:52;100519.13;;;11.74;90.48
42105;BME280;61464;51.472;5.712;2022-11-04T13:16:37;100533.81;;;11.67;90.14
42105;BME280;61464;51.472;5.712;2022-11-04T13:21:46;100547.47;;;11.69;89.83
42105;BME280;61464;51.472;5.712;2022-11-04T13:24:32;100546.09;;;11.81;89.67
42105;BME280;61464;51.472;5.712;2022-11-04T13:27:22;100548.22;;;11.78;89.54
42105;BME280;61464;51.472;5.712;2022-11-04T13:29:56;100553.19;;;11.96;89.76
42105;BME280;61464;51.472;5.712;2022-11-04T13:32:36;100558.41;;;11.87;89.68
42105;BME280;61464;51.472;5.712;2022-11-04T13:35:14;100558.94;;;11.75;88.24
42105;BME280;61464;51.472;5.712;2022-11-04T13:43:33;100571.22;;;11.58;89.03
42105;BME280;61464;51.472;5.712;2022-11-04T13:46:26;100565.38;;;11.56;90.68
42105;BME280;61464;51.472;5.712;2022-11-04T13:49:03;100577.25;;;11.50;90.92
42105;BME280;61464;51.472;5.712;2022-11-04T13:52:07;100578.91;;;11.51;90.64
42105;BME280;61464;51.472;5.712;2022-11-04T13:54:42;100583.44;;;11.49;90.58
42105;BME280;61464;51.472;5.712;2022-11-04T13:57:19;100587.22;;;11.46;90.23
42105;BME280;61464;51.472;5.712;2022-11-04T14:03:00;100592.84;;;11.50;91.68
42105;BME280;61464;51.472;5.712;2022-11-04T14:06:00;100592.72;;;11.43;92.27
42105;BME280;61464;51.472;5.712;2022-11-04T14:08:27;100597.28;;;11.41;92.92
42105;BME280;61464;51.472;5.712;2022-11-04T14:21:08;100613.50;;;10.71;100.00
42105;BME280;61464;51.472;5.712;2022-11-04T14:23:36;100613.16;;;10.74;100.00
42105;BME280;61464;51.472;5.712;2022-11-04T14:26:07;100613.78;;;10.76;100.00
42105;BME280;61464;51.472;5.712;2022-11-04T14:28:34;100618.19;;;10.76;100.00
42105;BME280;61464;51.472;5.712;2022-11-04T14:31:08;100620.94;;;10.82;100.00
42105;BME280;61464;51.472;5.712;2022-11-04T14:33:56;100631.66;;;10.79;100.00
42105;BME280;61464;51.472;5.712;2022-11-04T14:36:24;100622.56;;;10.83;100.00
42105;BME280;61464;51.472;5.712;2022-11-04T14:43:54;100646.44;;;10.87;100.00
42105;BME280;61464;51.472;5.712;2022-11-04T14:46:25;100657.94;;;10.84;100.00
42105;BME280;61464;51.472;5.712;2022-11-04T14:48:57;100660.72;;;10.83;100.00
42105;BME280;61464;51.472;5.712;2022-11-04T14:51:29;100664.28;;;10.82;100.00
42105;BME280;61464;51.472;5.712;2022-11-04T14:54:20;100667.22;;;10.79;100.00
42105;BME280;61464;51.472;5.712;2022-11-04T14:56:47;100671.91;;;10.75;100.00
42105;BME280;61464;51.472;5.712;2022-11-04T14:59:23;100675.78;;;10.71;100.00
42105;BME280;61464;51.472;5.712;2022-11-04T15:01:52;100675.78;;;10.71;100.00
42105;BME280;61464;51.472;5.712;2022-11-04T15:04:27;100675.16;;;10.69;100.00
42105;BME280;61464;51.472;5.712;2022-11-04T15:07:01;100686.50;;;10.68;100.00
42105;BME280;61464;51.472;5.712;2022-11-04T15:09:48;100685.53;;;10.69;100.00
42105;BME280;61464;51.472;5.712;2022-11-04T15:12:18;100692.66;;;10.67;100.00
42105;BME280;61464;51.472;5.712;2022-11-04T15:15:31;100703.53;;;10.62;100.00
42105;BME280;61464;51.472;5.712;2022-11-04T15:18:05;100714.72;;;10.63;100.00
42105;BME280;61464;51.472;5.712;2022-11-04T15:20:35;100721.34;;;10.57;100.00
42105;BME280;61464;51.472;5.712;2022-11-04T15:23:03;100718.25;;;10.54;100.00
42105;BME280;61464;51.472;5.712;2022-11-04T15:25:31;100723.28;;;10.47;100.00
42105;BME280;61464;51.472;5.712;2022-11-04T15:27:57;100728.94;;;10.42;100.00
42105;BME280;61464;51.472;5.712;2022-11-04T15:30:28;100726.50;;;10.41;100.00
42105;BME280;61464;51.472;5.712;2022-11-04T15:33:02;100732.03;;;10.38;100.00
42105;BME280;61464;51.472;5.712;2022-11-04T15:35:31;100735.56;;;10.37;100.00